createdAt,value
2018-05-08T00:01:19.133Z,98662.64
2018-05-08T00:03:48.261Z,98665.39
2018-05-08T00:06:18.327Z,98650.59
2018-05-08T00:08:47.693Z,98658.56
2018-05-08T00:11:17.270Z,98671.97
2018-05-08T00:13:46.770Z,98670.75
2018-05-08T00:16:15.886Z,98680.55
2018-05-08T00:18:44.706Z,98692.70
2018-05-08T00:21:14.885Z,98698.41
2018-05-08T00:23:44.250Z,98707.16
2018-05-08T00:26:13.801Z,98700.23
2018-05-08T00:28:43.405Z,98709.30
2018-05-08T00:31:13.211Z,98718.36
2018-05-08T00:33:43.391Z,98717.14
2018-05-08T00:36:12.553Z,98723.03
2018-05-08T00:38:41.429Z,98722.96
2018-05-08T00:41:10.799Z,98731.55
2018-05-08T00:43:39.890Z,98725.69
2018-05-08T00:46:08.645Z,98726.10
2018-05-08T00:48:37.635Z,98730.53
2018-05-08T00:51:07.947Z,98722.13
2018-05-08T00:53:36.916Z,98718.86
2018-05-08T00:56:06.277Z,98734.64
2018-05-08T00:58:35.097Z,98746.98
2018-05-08T01:01:04.291Z,98750.67
2018-05-08T01:03:33.471Z,98753.48
2018-05-08T01:06:02.351Z,98758.15
2018-05-08T01:08:31.160Z,98759.49
2018-05-08T01:11:00.637Z,98757.87
2018-05-08T01:13:30.718Z,98765.87
2018-05-08T01:16:00.447Z,98763.02
2018-05-08T01:18:30.160Z,98773.45
2018-05-08T01:20:59.540Z,98766.94
2018-05-08T01:23:28.823Z,98771.94
2018-05-08T01:25:57.554Z,98771.94
2018-05-08T01:28:26.571Z,98775.98
2018-05-08T01:30:55.458Z,98786.16
2018-05-08T01:33:24.674Z,98794.81
2018-05-08T01:35:53.736Z,98790.80
2018-05-08T01:38:22.510Z,98803.22
2018-05-08T01:40:51.292Z,98814.98
2018-05-08T01:43:21.007Z,98817.89
2018-05-08T01:45:50.601Z,98812.11
2018-05-08T01:48:19.236Z,98802.23
2018-05-08T01:50:48.615Z,98787.38
2018-05-08T01:53:18.495Z,98795.19
2018-05-08T01:55:47.725Z,98797.78
2018-05-08T01:58:17.138Z,98797.01
2018-05-08T02:00:46.724Z,98798.81
2018-05-08T02:03:16.217Z,98795.58
2018-05-08T02:05:45.616Z,98802.41
2018-05-08T02:08:14.898Z,98810.72
2018-05-08T02:10:44.039Z,98812.61
2018-05-08T02:13:13.045Z,98814.97
2018-05-08T02:15:41.908Z,98823.11
2018-05-08T02:18:11.053Z,98829.80
2018-05-08T02:20:40.396Z,98823.11
2018-05-08T02:23:09.497Z,98820.00
2018-05-08T02:25:38.711Z,98818.29
2018-05-08T02:28:08.520Z,98816.15
2018-05-08T02:30:38.158Z,98823.06
2018-05-08T02:33:07.507Z,98827.94
2018-05-08T02:35:36.728Z,98824.06
2018-05-08T02:38:05.955Z,98829.27
2018-05-08T02:40:34.957Z,98825.45
2018-05-08T02:43:04.911Z,98824.43
2018-05-08T02:45:34.220Z,98833.11
2018-05-08T02:48:03.892Z,98833.83
2018-05-08T02:50:33.041Z,98831.22
2018-05-08T02:53:02.811Z,98831.97
2018-05-08T02:55:33.013Z,98838.64
2018-05-08T02:58:02.095Z,98847.92
2018-05-08T03:00:31.112Z,98848.16
2018-05-08T03:03:00.637Z,98848.50
2018-05-08T03:05:30.053Z,98849.22
2018-05-08T03:07:59.314Z,98849.59
2018-05-08T03:10:28.576Z,98847.51
2018-05-08T03:12:58.532Z,98853.04
2018-05-08T03:15:27.302Z,98863.54
2018-05-08T03:17:56.528Z,98858.52
2018-05-08T03:20:25.432Z,98871.72
2018-05-08T03:22:54.349Z,98868.38
2018-05-08T03:25:23.682Z,98863.45
2018-05-08T03:27:53.424Z,98863.33
2018-05-08T03:30:22.730Z,98862.60
2018-05-08T03:32:51.804Z,98867.28
2018-05-08T03:35:22.206Z,98866.78
2018-05-08T03:37:51.472Z,98872.05
2018-05-08T03:40:20.489Z,98868.75
2018-05-08T03:42:49.759Z,98873.02
2018-05-08T03:45:18.864Z,98871.44
2018-05-08T03:47:48.715Z,98867.25
2018-05-08T03:50:18.387Z,98859.63
2018-05-08T03:52:47.773Z,98845.77
2018-05-08T03:55:16.626Z,98841.48
2018-05-08T03:57:46.038Z,98833.59
2018-05-08T04:00:26.780Z,98837.70
2018-05-08T04:03:07.769Z,98834.09
2018-05-08T04:05:49.072Z,98823.91
2018-05-08T04:08:39.317Z,98826.52
2018-05-08T04:11:09.024Z,98824.31
2018-05-08T04:13:38.795Z,98823.39
2018-05-08T04:16:07.846Z,98830.20
2018-05-08T04:18:36.867Z,98823.58
2018-05-08T04:21:05.563Z,98822.22
2018-05-08T04:23:34.949Z,98810.80
2018-05-08T04:26:04.395Z,98813.15
2018-05-08T04:28:34.086Z,98803.10
2018-05-08T04:31:03.191Z,98802.92
2018-05-08T04:33:32.448Z,98796.99
2018-05-08T04:36:01.534Z,98796.71
2018-05-08T04:38:30.450Z,98805.05
2018-05-08T04:41:00.029Z,98801.58
2018-05-08T04:43:29.500Z,98794.61
2018-05-08T04:45:59.386Z,98791.39
2018-05-08T04:48:28.705Z,98791.44
2018-05-08T04:50:58.283Z,98803.81
2018-05-08T04:53:28.010Z,98802.20
2018-05-08T04:55:57.984Z,98804.33
2018-05-08T04:58:28.935Z,98804.37
2018-05-08T05:00:57.970Z,98807.80
2018-05-08T05:03:27.065Z,98802.10
2018-05-08T05:05:56.073Z,98808.16
2018-05-08T05:08:25.724Z,98801.33
2018-05-08T05:10:54.917Z,98811.59
2018-05-08T05:13:24.450Z,98813.77
2018-05-08T05:15:53.706Z,98807.58
2018-05-08T05:18:22.874Z,98798.34
2018-05-08T05:20:52.120Z,98785.96
2018-05-08T05:23:21.955Z,98776.25
2018-05-08T05:25:51.217Z,98772.16
2018-05-08T05:28:20.674Z,98771.14
2018-05-08T05:30:49.835Z,98760.02
2018-05-08T05:33:19.127Z,98755.26
2018-05-08T05:35:48.722Z,98755.77
2018-05-08T05:38:17.880Z,98755.63
2018-05-08T05:40:46.825Z,98756.44
2018-05-08T05:43:15.986Z,98750.47
2018-05-08T05:45:45.152Z,98743.14
2018-05-08T05:48:14.287Z,98733.32
2018-05-08T05:50:43.292Z,98729.00
2018-05-08T05:53:12.929Z,98723.70
2018-05-08T05:55:41.993Z,98714.73
2018-05-08T05:58:10.610Z,98723.84
2018-05-08T06:00:42.937Z,98731.75
2018-05-08T06:03:12.366Z,98725.98
2018-05-08T06:05:41.460Z,98728.98
2018-05-08T06:08:10.367Z,98717.70
2018-05-08T06:10:40.062Z,98721.86
2018-05-08T06:13:09.519Z,98721.05
2018-05-08T06:15:39.362Z,98708.76
2018-05-08T06:18:08.721Z,98699.52
2018-05-08T06:20:37.708Z,98691.77
2018-05-08T06:23:06.484Z,98686.00
2018-05-08T06:25:35.405Z,98686.73
2018-05-08T06:28:05.119Z,98682.16
2018-05-08T06:30:34.499Z,98679.11
2018-05-08T06:33:02.936Z,98679.53
2018-05-08T06:35:31.799Z,98679.31
2018-05-08T06:38:00.846Z,98670.58
2018-05-08T06:40:30.176Z,98672.84
2018-05-08T06:42:59.386Z,98656.39
2018-05-08T06:45:28.776Z,98660.73
2018-05-08T06:47:58.364Z,98652.37
2018-05-08T06:50:27.296Z,98650.94
2018-05-08T06:52:57.512Z,98658.72
2018-05-08T06:55:26.602Z,98656.81
2018-05-08T06:57:55.931Z,98652.37
2018-05-08T07:00:25.329Z,98649.54
2018-05-08T07:02:54.409Z,98643.45
2018-05-08T07:05:23.564Z,98637.70
2018-05-08T07:07:52.347Z,98638.22
2018-05-08T07:10:21.199Z,98621.50
2018-05-08T07:12:49.817Z,98620.70
2018-05-08T07:15:19.201Z,98617.00
2018-05-08T07:17:47.913Z,98617.51
2018-05-08T07:20:16.964Z,98606.56
2018-05-08T07:22:46.680Z,98610.20
2018-05-08T07:25:16.396Z,98610.34
2018-05-08T07:27:45.169Z,98600.51
2018-05-08T07:30:15.005Z,98607.11
2018-05-08T07:32:44.379Z,98603.41
2018-05-08T07:35:13.341Z,98594.47
2018-05-08T07:37:42.583Z,98584.86
2018-05-08T07:40:11.391Z,98580.05
2018-05-08T07:42:40.930Z,98581.47
2018-05-08T07:45:10.212Z,98582.02
2018-05-08T07:47:39.757Z,98578.72
2018-05-08T07:50:08.877Z,98575.30
2018-05-08T07:52:38.373Z,98574.80
2018-05-08T07:55:09.166Z,98572.12
2018-05-08T07:57:37.990Z,98569.12
2018-05-08T08:00:06.918Z,98562.42
2018-05-08T08:02:36.452Z,98566.66
2018-05-08T08:05:05.668Z,98562.23
2018-05-08T08:07:35.266Z,98572.30
2018-05-08T08:10:04.539Z,98575.41
2018-05-08T08:12:33.985Z,98567.77
2018-05-08T08:15:02.941Z,98558.39
2018-05-08T08:17:31.936Z,98556.86
2018-05-08T08:20:01.424Z,98559.08
2018-05-08T08:22:30.599Z,98553.63
2018-05-08T08:24:59.718Z,98557.00
2018-05-08T08:27:28.886Z,98557.13
2018-05-08T08:29:58.162Z,98548.34
2018-05-08T08:32:27.012Z,98545.37
2018-05-08T08:34:56.307Z,98541.88
2018-05-08T08:37:25.616Z,98539.80
2018-05-08T08:39:54.475Z,98538.27
2018-05-08T08:42:23.055Z,98531.69
2018-05-08T08:44:52.194Z,98524.56
2018-05-08T08:47:22.359Z,98519.92
2018-05-08T08:49:51.743Z,98519.39
2018-05-08T08:52:21.466Z,98521.69
2018-05-08T08:54:51.077Z,98516.73
2018-05-08T08:57:20.735Z,98518.19
2018-05-08T08:59:49.950Z,98514.05
2018-05-08T09:02:19.488Z,98510.14
2018-05-08T09:04:48.674Z,98506.72
2018-05-08T09:07:18.457Z,98508.70
2018-05-08T09:09:47.921Z,98499.19
2018-05-08T09:12:17.582Z,98487.86
2018-05-08T09:14:47.366Z,98489.09
2018-05-08T09:17:16.183Z,98475.50
2018-05-08T09:19:45.248Z,98479.60
2018-05-08T09:22:13.947Z,98476.30
2018-05-08T09:24:42.674Z,98477.55
2018-05-08T09:27:11.979Z,98470.31
2018-05-08T09:29:41.253Z,98470.02
2018-05-08T09:32:10.298Z,98464.24
2018-05-08T09:34:39.208Z,98461.77
2018-05-08T09:37:08.698Z,98457.32
2018-05-08T09:39:37.561Z,98451.95
2018-05-08T09:42:07.301Z,98458.15
2018-05-08T09:44:36.618Z,98453.20
2018-05-08T09:47:05.626Z,98447.44
2018-05-08T09:49:35.500Z,98448.05
2018-05-08T09:52:05.115Z,98442.98
2018-05-08T09:54:34.090Z,98440.72
2018-05-08T09:57:02.788Z,98441.53
2018-05-08T09:59:33.296Z,98434.82
2018-05-08T10:02:02.404Z,98432.59
2018-05-08T10:04:31.724Z,98441.45
2018-05-08T10:07:01.082Z,98444.96
2018-05-08T10:09:30.022Z,98438.36
2018-05-08T10:11:58.854Z,98439.91
2018-05-08T10:14:28.224Z,98437.34
2018-05-08T10:16:58.228Z,98433.32
2018-05-08T10:19:27.335Z,98430.13
2018-05-08T10:21:56.371Z,98429.91
2018-05-08T10:24:25.689Z,98425.55
2018-05-08T10:26:55.002Z,98422.05
2018-05-08T10:29:24.368Z,98417.09
2018-05-08T10:31:53.227Z,98424.44
2018-05-08T10:34:22.627Z,98423.80
2018-05-08T10:36:52.051Z,98419.98
2018-05-08T10:39:21.995Z,98405.64
2018-05-08T10:41:51.946Z,98401.00
2018-05-08T10:44:21.183Z,98405.59
2018-05-08T10:46:50.612Z,98404.26
2018-05-08T10:49:20.365Z,98402.09
2018-05-08T10:51:49.539Z,98404.75
2018-05-08T10:54:19.637Z,98401.55
2018-05-08T10:56:49.100Z,98402.89
2018-05-08T10:59:18.636Z,98399.89
2018-05-08T11:01:49.806Z,98393.88
2018-05-08T11:04:19.258Z,98398.87
2018-05-08T11:06:48.092Z,98395.56
2018-05-08T11:09:17.224Z,98398.87
2018-05-08T11:11:46.665Z,98392.16
2018-05-08T11:14:15.979Z,98391.43
2018-05-08T11:16:45.221Z,98390.40
2018-05-08T11:19:14.565Z,98392.87
2018-05-08T11:21:43.503Z,98389.03
2018-05-08T11:24:13.086Z,98393.89
2018-05-08T11:26:42.182Z,98392.55
2018-05-08T11:29:12.146Z,98388.28
2018-05-08T11:31:41.004Z,98400.59
2018-05-08T11:34:10.517Z,98393.37
2018-05-08T11:36:40.258Z,98399.26
2018-05-08T11:39:09.883Z,98399.84
2018-05-08T11:41:39.128Z,98391.89
2018-05-08T11:44:07.886Z,98397.78
2018-05-08T11:46:37.202Z,98401.91
2018-05-08T11:49:06.388Z,98397.75
2018-05-08T11:51:35.995Z,98406.63
2018-05-08T11:54:04.872Z,98402.45
2018-05-08T11:56:34.561Z,98400.59
2018-05-08T11:59:03.786Z,98402.34
2018-05-08T12:01:33.379Z,98411.02
2018-05-08T12:04:03.719Z,98414.20
2018-05-08T12:06:32.933Z,98412.91
2018-05-08T12:09:02.168Z,98418.69
2018-05-08T12:11:30.998Z,98425.06
2018-05-08T12:14:00.080Z,98426.30
2018-05-08T12:16:29.369Z,98424.03
2018-05-08T12:18:58.482Z,98429.09
2018-05-08T12:21:27.855Z,98435.39
2018-05-08T12:23:57.096Z,98435.80
2018-05-08T12:26:25.713Z,98439.28
2018-05-08T12:28:55.683Z,98445.31
2018-05-08T12:31:25.350Z,98435.09
2018-05-08T12:33:54.550Z,98439.32
2018-05-08T12:36:23.467Z,98442.38
2018-05-08T12:38:53.135Z,98439.41
2018-05-08T12:41:22.306Z,98438.17
2018-05-08T12:43:52.383Z,98437.66
2018-05-08T12:46:21.474Z,98440.65
2018-05-08T12:48:50.350Z,98448.41
2018-05-08T12:51:19.382Z,98451.52
2018-05-08T12:53:48.976Z,98447.80
2018-05-08T12:56:17.467Z,98444.70
2018-05-08T12:58:46.978Z,98445.64
2018-05-08T13:01:16.198Z,98446.16
2018-05-08T13:03:45.145Z,98454.41
2018-05-08T13:06:15.740Z,98451.81
2018-05-08T13:08:44.760Z,98450.27
2018-05-08T13:11:14.168Z,98450.48
2018-05-08T13:13:43.608Z,98449.76
2018-05-08T13:16:12.758Z,98451.48
2018-05-08T13:18:41.397Z,98453.91
2018-05-08T13:21:10.886Z,98446.97
2018-05-08T13:23:40.655Z,98455.13
2018-05-08T13:26:10.510Z,98461.42
2018-05-08T13:28:39.668Z,98459.26
2018-05-08T13:31:08.668Z,98466.05
2018-05-08T13:33:37.495Z,98470.69
2018-05-08T13:36:06.622Z,98472.98
2018-05-08T13:38:36.135Z,98482.70
2018-05-08T13:41:05.311Z,98478.98
2018-05-08T13:43:35.160Z,98485.38
2018-05-08T13:46:04.361Z,98490.55
2018-05-08T13:48:33.500Z,98492.64
2018-05-08T13:51:02.812Z,98487.98
2018-05-08T13:53:32.267Z,98497.69
2018-05-08T13:56:01.479Z,98504.69
2018-05-08T13:58:31.584Z,98507.48
2018-05-08T14:01:00.916Z,98507.48
2018-05-08T14:03:30.861Z,98505.02
2018-05-08T14:06:00.479Z,98506.57
2018-05-08T14:08:30.803Z,98503.27
2018-05-08T14:10:59.488Z,98503.99
2018-05-08T14:13:29.263Z,98505.11
2018-05-08T14:15:58.291Z,98502.66
2018-05-08T14:18:27.135Z,98506.05
2018-05-08T14:20:56.647Z,98511.52
2018-05-08T14:23:26.949Z,98514.91
2018-05-08T14:25:55.777Z,98520.91
2018-05-08T14:28:25.548Z,98524.41
2018-05-08T14:30:55.033Z,98533.50
2018-05-08T14:33:24.588Z,98542.56
2018-05-08T14:35:53.755Z,98544.01
2018-05-08T14:38:23.033Z,98545.46
2018-05-08T14:40:52.548Z,98543.30
2018-05-08T14:43:22.433Z,98550.10
2018-05-08T14:45:53.021Z,98558.17
2018-05-08T14:48:22.026Z,98556.92
2018-05-08T14:50:51.682Z,98559.59
2018-05-08T14:53:21.324Z,98567.13
2018-05-08T14:55:50.258Z,98564.55
2018-05-08T14:58:19.341Z,98571.25
2018-05-08T15:00:48.674Z,98563.20
2018-05-08T15:03:17.176Z,98569.73
2018-05-08T15:05:46.711Z,98574.10
2018-05-08T15:08:15.832Z,98578.16
2018-05-08T15:10:45.536Z,98573.81
2018-05-08T15:13:14.992Z,98577.97
2018-05-08T15:15:44.453Z,98578.38
2018-05-08T15:18:13.939Z,98574.99
2018-05-08T15:20:43.584Z,98574.66
2018-05-08T15:23:12.973Z,98570.33
2018-05-08T15:25:42.995Z,98574.05
2018-05-08T15:28:12.406Z,98582.52
2018-05-08T15:30:41.982Z,98586.34
2018-05-08T15:33:10.831Z,98588.73
2018-05-08T15:35:40.031Z,98589.14
2018-05-08T15:38:09.641Z,98596.55
2018-05-08T15:40:38.573Z,98592.64
2018-05-08T15:43:07.436Z,98598.00
2018-05-08T15:45:36.841Z,98598.83
2018-05-08T15:48:05.943Z,98605.33
2018-05-08T15:50:35.280Z,98609.15
2018-05-08T15:53:04.320Z,98611.13
2018-05-08T15:55:33.617Z,98613.66
2018-05-08T15:58:02.881Z,98616.06
2018-05-08T16:00:31.680Z,98617.20
2018-05-08T16:03:01.065Z,98619.16
2018-05-08T16:05:30.322Z,98622.56
2018-05-08T16:07:59.746Z,98626.91
2018-05-08T16:10:28.767Z,98625.56
2018-05-08T16:12:58.912Z,98633.62
2018-05-08T16:15:27.975Z,98643.72
2018-05-08T16:17:57.247Z,98643.41
2018-05-08T16:20:26.589Z,98647.95
2018-05-08T16:22:56.453Z,98658.89
2018-05-08T16:25:26.005Z,98659.92
2018-05-08T16:27:55.189Z,98668.80
2018-05-08T16:30:24.591Z,98673.14
2018-05-08T16:32:53.497Z,98679.34
2018-05-08T16:35:22.535Z,98691.95
2018-05-08T16:37:51.786Z,98688.95
2018-05-08T16:40:21.239Z,98695.25
2018-05-08T16:42:51.780Z,98704.13
2018-05-08T16:45:21.661Z,98704.95
2018-05-08T16:47:50.598Z,98702.12
2018-05-08T16:50:20.278Z,98712.16
2018-05-08T16:52:49.472Z,98711.01
2018-05-08T16:55:18.901Z,98707.59
2018-05-08T16:57:47.951Z,98715.23
2018-05-08T17:00:17.117Z,98718.14
2018-05-08T17:02:46.448Z,98717.41
2018-05-08T17:05:15.566Z,98725.04
2018-05-08T17:07:44.445Z,98729.55
2018-05-08T17:10:13.836Z,98733.48
2018-05-08T17:12:42.873Z,98732.40
2018-05-08T17:15:12.442Z,98731.23
2018-05-08T17:17:42.353Z,98732.16
2018-05-08T17:20:11.992Z,98733.41
2018-05-08T17:22:40.912Z,98735.33
2018-05-08T17:25:10.443Z,98733.48
2018-05-08T17:27:39.326Z,98737.41
2018-05-08T17:30:08.563Z,98736.16
2018-05-08T17:32:37.906Z,98737.81
2018-05-08T17:35:07.444Z,98737.09
2018-05-08T17:37:36.417Z,98738.64
2018-05-08T17:40:06.449Z,98738.33
2018-05-08T17:42:35.879Z,98743.19
2018-05-08T17:45:05.129Z,98745.03
2018-05-08T17:47:34.957Z,98736.37
2018-05-08T17:50:04.306Z,98737.59
2018-05-08T17:52:33.644Z,98744.30
2018-05-08T17:55:03.491Z,98749.38
2018-05-08T17:57:32.613Z,98743.37
2018-05-08T18:00:01.402Z,98744.76
2018-05-08T18:02:30.502Z,98745.59
2018-05-08T18:04:59.573Z,98743.13
2018-05-08T18:07:29.097Z,98742.30
2018-05-08T18:09:59.072Z,98748.78
2018-05-08T18:12:28.968Z,98746.94
2018-05-08T18:14:58.122Z,98744.73
2018-05-08T18:17:27.643Z,98751.37
2018-05-08T18:19:57.512Z,98748.25
2018-05-08T18:22:27.176Z,98761.63
2018-05-08T18:24:56.735Z,98798.42
2018-05-08T18:27:26.319Z,98796.08
2018-05-08T18:29:55.874Z,98782.73
2018-05-08T18:32:25.385Z,98793.18
2018-05-08T18:34:54.553Z,98792.25
2018-05-08T18:37:23.499Z,98796.44
2018-05-08T18:39:52.522Z,98797.20
2018-05-08T18:42:21.637Z,98795.13
2018-05-08T18:44:51.045Z,98792.03
2018-05-08T18:47:20.340Z,98796.37
2018-05-08T18:49:49.391Z,98791.62
2018-05-08T18:52:18.849Z,98783.44
2018-05-08T18:54:48.070Z,98784.52
2018-05-08T18:57:16.927Z,98774.59
2018-05-08T18:59:46.680Z,98773.80
2018-05-08T19:02:15.832Z,98771.53
2018-05-08T19:04:44.626Z,98769.78
2018-05-08T19:07:13.763Z,98767.41
2018-05-08T19:09:43.001Z,98757.42
2018-05-08T19:12:11.951Z,98750.08
2018-05-08T19:14:42.056Z,98744.95
2018-05-08T19:17:11.529Z,98738.14
2018-05-08T19:19:46.374Z,98735.56
2018-05-08T19:22:15.239Z,98739.39
2018-05-08T19:24:45.110Z,98732.05
2018-05-08T19:27:14.196Z,98728.16
2018-05-08T19:32:49.818Z,98732.97
2018-05-08T19:35:24.402Z,98723.08
2018-05-08T19:37:58.604Z,98716.05
2018-05-08T19:40:27.839Z,98712.86
2018-05-08T19:42:56.900Z,98710.57
2018-05-08T19:45:25.785Z,98700.45
2018-05-08T19:47:54.459Z,98697.55
2018-05-08T19:50:23.709Z,98697.55
2018-05-08T19:52:52.898Z,98691.55
2018-05-08T19:55:21.953Z,98699.84
2018-05-08T19:57:51.256Z,98690.05
2018-05-08T20:00:20.473Z,98689.61
2018-05-08T20:02:49.756Z,98689.92
2018-05-08T20:05:18.799Z,98688.30
2018-05-08T20:07:48.210Z,98683.25
2018-05-08T20:10:17.528Z,98686.77
2018-05-08T20:12:46.599Z,98676.46
2018-05-08T20:15:16.434Z,98668.10
2018-05-08T20:17:46.347Z,98674.70
2018-05-08T20:20:16.814Z,98670.69
2018-05-08T20:22:46.080Z,98665.10
2018-05-08T20:25:14.785Z,98669.13
2018-05-08T20:27:43.536Z,98672.83
2018-05-08T20:30:13.537Z,98665.00
2018-05-08T20:32:42.331Z,98665.39
2018-05-08T20:35:12.352Z,98662.30
2018-05-08T20:37:41.584Z,98664.17
2018-05-08T20:40:10.524Z,98656.30
2018-05-08T20:42:39.993Z,98657.83
2018-05-08T20:45:09.001Z,98659.08
2018-05-08T20:47:37.961Z,98654.73
2018-05-08T20:50:07.038Z,98660.41
2018-05-08T20:52:36.264Z,98655.16
2018-05-08T20:55:05.554Z,98654.52
2018-05-08T20:57:34.435Z,98640.28
2018-05-08T21:00:03.115Z,98639.67
2018-05-08T21:02:32.962Z,98637.41
2018-05-08T21:05:02.287Z,98640.28
2018-05-08T21:07:32.188Z,98634.00
2018-05-08T21:10:01.496Z,98630.62
2018-05-08T21:12:30.215Z,98629.28
2018-05-08T21:14:59.190Z,98635.53
2018-05-08T21:17:28.472Z,98630.62
2018-05-08T21:19:57.898Z,98629.06
2018-05-08T21:22:28.235Z,98620.03
2018-05-08T21:24:58.445Z,98612.19
2018-05-08T21:27:33.974Z,98613.20
2018-05-08T21:30:08.462Z,98604.38
2018-05-08T21:32:37.797Z,98603.42
2018-05-08T21:35:07.365Z,98596.59
2018-05-08T21:37:36.397Z,98595.67
2018-05-08T21:40:05.609Z,98597.33
2018-05-08T21:42:34.701Z,98600.20
2018-05-08T21:45:03.392Z,98601.76
2018-05-08T21:47:32.803Z,98604.25
2018-05-08T21:50:01.626Z,98602.88
2018-05-08T21:52:30.728Z,98610.11
2018-05-08T21:55:00.405Z,98621.98
2018-05-08T21:57:29.112Z,98627.44
2018-05-08T21:59:58.333Z,98629.09
2018-05-08T22:02:28.257Z,98629.09
2018-05-08T22:04:57.348Z,98629.57
2018-05-08T22:07:26.532Z,98638.75
2018-05-08T22:09:56.745Z,98650.48
2018-05-08T22:12:25.440Z,98644.30
2018-05-08T22:14:54.215Z,98649.59
2018-05-08T22:17:23.508Z,98648.34
2018-05-08T22:19:53.169Z,98650.58
2018-05-08T22:22:22.729Z,98653.41
2018-05-08T22:24:52.837Z,98661.44
2018-05-08T22:27:21.971Z,98658.56
2018-05-08T22:29:51.097Z,98659.90
2018-05-08T22:32:20.503Z,98668.64
2018-05-08T22:34:49.969Z,98671.58
2018-05-08T22:37:19.090Z,98665.17
2018-05-08T22:39:48.059Z,98668.58
2018-05-08T22:42:17.097Z,98672.51
2018-05-08T22:44:46.496Z,98668.59
2018-05-08T22:47:15.585Z,98671.67
2018-05-08T22:49:44.721Z,98672.19
2018-05-08T22:52:13.912Z,98669.27
2018-05-08T22:54:42.895Z,98672.14
2018-05-08T22:57:11.413Z,98679.76
2018-05-08T22:59:40.392Z,98672.75
2018-05-08T23:02:09.409Z,98679.39
2018-05-08T23:04:38.858Z,98683.13
2018-05-08T23:07:08.031Z,98685.77
2018-05-08T23:09:37.035Z,98683.59
2018-05-08T23:12:06.109Z,98692.03
2018-05-08T23:14:35.946Z,98692.18
2018-05-08T23:17:04.602Z,98695.91
2018-05-08T23:19:34.127Z,98700.77
2018-05-08T23:22:03.433Z,98700.44
2018-05-08T23:24:32.856Z,98697.58
2018-05-08T23:27:02.914Z,98694.71
2018-05-08T23:29:32.409Z,98700.44
2018-05-08T23:32:01.963Z,98698.22
2018-05-08T23:34:31.663Z,98703.67
2018-05-08T23:37:01.495Z,98707.83
2018-05-08T23:39:31.161Z,98713.55
2018-05-08T23:42:00.295Z,98717.02
2018-05-08T23:44:29.566Z,98722.31
2018-05-08T23:46:58.456Z,98717.88
2018-05-08T23:49:28.207Z,98717.14
2018-05-08T23:51:57.162Z,98719.53
2018-05-08T23:54:26.188Z,98722.07
2018-05-08T23:56:55.349Z,98717.31
2018-05-08T23:59:24.462Z,98721.94
